x

Long Island - 30 Nm South Of Islip, Ny (44025) Wave Buoy

4:50pm - Thu 22nd Feb 2018 All times are EST. -5 hours from GMT.

  • Sig Wave height 6.2ft
  • Swell Direction
  • Peak Period 6s
  • Average Period 5s
  • Wind
    27mph, 31mph gusts
  • Sea Temp 42°f
  • Air Temp 42°f
  • Sea Pressure 1035.1mb
  • Long Island - 30 Nm South Of Islip, Ny
  • Long Island - 30 Nm South Of Islip, Ny

More Historic Weather Station data

Upgrade to MSW Pro to gain access to the past 30 days of data for over 8000 Wavebouys and Weather Stations around the globe.

Join

Comparision Forecast

View Surf forecast
   
Thu 02/22 4:50pm 6ft 6s 5s 27 31 mph 1035.1mb 42f 42f
3:50pm 6.5ft 7s 5s 27 31 mph 1034mb 42f 42f
2:50pm 6ft 7s 5s 27 31 mph 1032.7mb 42f 42f
1:50pm 6ft 6s 5s 25 27 mph 1033.3mb 42f 42f
12:50pm 5.5ft 6s 5s 25 29 mph 1033.6mb 43f 43f
11:50am 4.5ft 4s 4s 25 31 mph 1034.4mb 43f 43f
10:50am 3.5ft 16s 4s 20 25 mph 1035.8mb 43f 44f
9:50am 3ft 14s 4s 18 25 mph 1035mb 43f 45f
8:50am 2.5ft 15s 4s 13 18 mph 1034.4mb 43f 45f
7:50am 2.5ft 13s 5s 16 20 mph 1033.6mb 43f 45f
6:50am 3ft 15s 5s 13 18 mph 1033.5mb 43f 46f
5:50am 2.5ft 14s 5s 20 25 mph 1033.1mb 43f 46f
4:50am 3ft 15s 5s 16 20 mph 1032.3mb 43f 46f
3:50am 3ft 6s 6s 13 16 mph 1031.3mb 43f 47f
2:50am 3.5ft 6s 6s 9 11 mph 1031mb 43f 49f
1:50am 3.5ft 6s 5s 2 4 mph 1030.6mb 43f 47f
12:50am 3.5ft 6s 5s 7 9 mph 1029.5mb 43f 47f
Wed 02/21 11:50pm 3.5ft 6s 5s 9 9 mph 1028.8mb 43f 49f
10:50pm 3.5ft 6s 5s 7 9 mph 1028.2mb 43f 47f
9:50pm 4.5ft 6s 5s 13 16 mph 1027.3mb 43f 47f
8:50pm 4.5ft 6s 5s 11 13 mph 1026.4mb 43f 48f
7:50pm 4.5ft 6s 5s 16 18 mph 1025.7mb 43f 48f
6:50pm 4.5ft 6s 5s 16 20 mph 1025.3mb 43f 48f
5:50pm 4.5ft 5s 5s 18 20 mph 1024.7mb 43f 49f
4:50pm 4.5ft 6s 5s 18 20 mph 1024.3mb 43f 49f
3:50pm 5ft 6s 5s 20 25 mph 1023.8mb 43f 49f
2:50pm 4.5ft 6s 5s 22 25 mph 1023.6mb 43f 49f
1:50pm 4.5ft 5s 5s 20 22 mph 1023.9mb 43f 48f
12:50pm 4.5ft 6s 5s 22 25 mph 1024.5mb 43f 47f
11:50am 4.5ft 6s 5s 16 18 mph 1026mb 42f 46f
10:50am 4.5ft 6s 5s 16 18 mph 1026.7mb 42f 47f
9:50am 4.5ft 6s 5s 20 22 mph 1026.8mb 42f 47f
8:50am 5ft 5s 5s 20 25 mph 1027.1mb 42f 46f
7:50am 4.5ft 5s 5s 16 20 mph 1027.6mb 42f 45f
6:50am 5ft 6s 5s 16 20 mph 1027.3mb 43f 45f
5:50am 4.5ft 6s 5s 20 22 mph 1026.9mb 43f 47f
4:50am 4.5ft 5s 5s 18 20 mph 1027mb 43f 47f
3:50am 4.5ft 6s 5s 16 18 mph 1027.3mb 42f 46f
1:50am 4.5ft 6s 5s 18 20 mph 1027.8mb 42f 47f
12:50am 4.5ft 6s 5s 20 22 mph 1028.1mb 42f 47f
Tue 02/20 11:50pm 4.5ft 6s 5s 20 25 mph 1028.1mb 42f 47f
10:50pm 4.5ft 6s 5s 20 25 mph 1027.9mb 42f 47f
9:50pm 4.5ft 6s 5s 18 20 mph 1028mb 42f 46f
8:50pm 4.5ft 6s 5s 20 25 mph 1027.8mb 42f 46f
7:50pm 4.5ft 6s 5s 18 22 mph 1027.5mb 42f 47f
6:50pm 4.5ft 6s 5s 20 22 mph 1027.4mb 42f 46f
5:50pm 4.5ft 10s 5s 20 22 mph 1026.8mb 42f 47f
4:50pm 5ft 6s 5s 18 22 mph 1026.1mb 42f 47f
3:50pm 4.5ft 6s 5s 18 20 mph 1026.2mb 42f 46f
2:50pm 4.5ft 6s 5s 18 20 mph 1026.1mb 42f 46f
1:50pm 4ft 6s 5s 18 20 mph 1026.2mb 42f 46f
12:50pm 4ft 6s 5s 13 16 mph 1026.8mb 42f 45f
11:50am 3.5ft 6s 5s 16 18 mph 1027.3mb 42f 45f
10:50am 4ft 5s 5s 13 18 mph 1027.8mb 42f 46f
9:50am 4ft 5s 5s 16 18 mph 1027.7mb 42f 46f
8:50am 4ft 5s 5s 18 20 mph 1027.5mb 42f 46f
7:50am 4.5ft 5s 5s 13 16 mph 1027.8mb 42f 45f
6:50am 4ft 5s 5s 13 16 mph 1027.3mb 42f 45f
5:50am 4ft 5s 5s 13 13 mph 1026.9mb 42f 45f
4:50am 3.5ft 5s 5s 13 16 mph 1026.6mb 42f 45f
3:50am 4.5ft 5s 5s 13 16 mph 1026.6mb 42f 45f
2:50am 4.5ft 5s 5s 13 16 mph 1026.6mb 42f 45f
1:50am 5ft 5s 5s 13 16 mph 1027.2mb 42f 46f
12:50am 4.5ft 10s 5s 20 22 mph 1027mb 42f 48f
Mon 02/19 11:50pm 4.5ft 10s 5s 18 20 mph 1027.2mb 42f 47f
10:50pm 3.5ft 11s 5s 20 25 mph 1027.2mb 42f 48f
9:50pm 3.5ft 10s 5s 18 20 mph 1027.6mb 42f 48f
8:50pm 3ft 10s 5s 13 16 mph 1028.2mb 42f 47f
7:50pm 3ft 11s 5s 13 16 mph 1028.6mb 42f 47f
5:50pm 2.5ft 9s 5s 13 16 mph 1028.9mb 42f 46f
4:50pm 2.5ft 10s 6s 9 11 mph 1029.8mb 42f 46f
3:50pm 2.5ft 8s 5s 9 9 mph 1029.6mb 42f 46f
2:50pm 2.5ft 9s 5s 9 11 mph 1029.8mb 43f 46f
1:50pm 2.5ft 8s 5s 7 7 mph 1030.3mb 43f 46f
12:50pm 2.5ft 8s 5s 9 11 mph 1031.3mb 43f 45f
11:50am 2.5ft 8s 4s 4 7 mph 1032.8mb 43f 45f
10:50am 2ft 8s 4s 2 2 mph 1033.6mb 42f 46f
9:50am 2.5ft 8s 4s 7 9 mph 1033.6mb 42f 44f
8:50am 2.5ft 8s 4s 7 9 mph 1034mb 42f 44f
7:50am 2.5ft 8s 4s 11 11 mph 1034.1mb 42f 44f
6:50am 2.5ft 3s 4s 11 13 mph 1033.8mb 42f 43f
5:50am 2ft 8s 4s 13 16 mph 1034.2mb 42f 43f
4:50am 1.6ft 8s 5s 13 16 mph 1033.7mb 42f 42f
3:50am 1.3ft 8s 6s 9 9 mph 1034.3mb 42f 42f
2:50am 1.3ft 9s 6s 7 9 mph 1034.3mb 42f 41f
1:50am 1.3ft 8s 6s 7 7 mph 1034.2mb 42f 41f
12:50am 1.3ft 7s 6s 2 4 mph 1034.4mb 42f 41f
Sun 02/18 11:50pm 1.3ft 10s 6s 2 4 mph 1034mb 42f 41f